sensor_id;sensor_type;location;lat;lon;timestamp;temperature;humidity
5128;DHT22;2582;48.770;9.190;2023-07-13T00:00:19;22.70;97.60
5128;DHT22;2582;48.770;9.190;2023-07-13T00:02:45;22.50;97.70
5128;DHT22;2582;48.770;9.190;2023-07-13T00:05:10;22.40;97.50
5128;DHT22;2582;48.770;9.190;2023-07-13T00:07:37;22.40;97.80
5128;DHT22;2582;48.770;9.190;2023-07-13T00:10:03;22.40;97.50
5128;DHT22;2582;48.770;9.190;2023-07-13T00:12:34;22.40;97.40
5128;DHT22;2582;48.770;9.190;2023-07-13T00:15:17;22.40;97.30
5128;DHT22;2582;48.770;9.190;2023-07-13T00:17:54;22.20;97.30
5128;DHT22;2582;48.770;9.190;2023-07-13T00:20:24;22.00;97.10
5128;DHT22;2582;48.770;9.190;2023-07-13T00:22:51;22.00;97.30
5128;DHT22;2582;48.770;9.190;2023-07-13T00:25:19;22.00;97.20
5128;DHT22;2582;48.770;9.190;2023-07-13T00:27:47;22.00;97.20
5128;DHT22;2582;48.770;9.190;2023-07-13T00:30:16;22.10;97.20
5128;DHT22;2582;48.770;9.190;2023-07-13T00:32:42;22.00;97.10
5128;DHT22;2582;48.770;9.190;2023-07-13T00:35:08;22.00;96.90
5128;DHT22;2582;48.770;9.190;2023-07-13T00:37:34;22.10;97.10
5128;DHT22;2582;48.770;9.190;2023-07-13T00:40:02;21.90;96.60
5128;DHT22;2582;48.770;9.190;2023-07-13T00:42:28;21.90;97.00
5128;DHT22;2582;48.770;9.190;2023-07-13T00:47:46;21.90;96.80
5128;DHT22;2582;48.770;9.190;2023-07-13T00:50:15;22.00;96.50
5128;DHT22;2582;48.770;9.190;2023-07-13T00:52:44;21.80;96.80
5128;DHT22;2582;48.770;9.190;2023-07-13T00:55:11;21.90;96.90
5128;DHT22;2582;48.770;9.190;2023-07-13T00:57:38;21.90;97.20
5128;DHT22;2582;48.770;9.190;2023-07-13T01:00:06;22.00;96.70
5128;DHT22;2582;48.770;9.190;2023-07-13T01:02:40;21.70;96.30
5128;DHT22;2582;48.770;9.190;2023-07-13T01:05:11;21.90;96.90
5128;DHT22;2582;48.770;9.190;2023-07-13T01:07:39;21.80;96.00
5128;DHT22;2582;48.770;9.190;2023-07-13T01:10:06;22.00;96.40
5128;DHT22;2582;48.770;9.190;2023-07-13T01:12:32;22.10;96.00
5128;DHT22;2582;48.770;9.190;2023-07-13T01:14:58;22.20;96.50
5128;DHT22;2582;48.770;9.190;2023-07-13T01:17:27;22.10;96.40
5128;DHT22;2582;48.770;9.190;2023-07-13T01:19:53;22.10;96.30
5128;DHT22;2582;48.770;9.190;2023-07-13T01:22:19;21.90;95.90
5128;DHT22;2582;48.770;9.190;2023-07-13T01:24:48;22.00;96.60
5128;DHT22;2582;48.770;9.190;2023-07-13T01:27:24;21.90;96.70
5128;DHT22;2582;48.770;9.190;2023-07-13T01:29:51;21.90;96.40
5128;DHT22;2582;48.770;9.190;2023-07-13T01:32:24;21.90;96.30
5128;DHT22;2582;48.770;9.190;2023-07-13T01:34:51;21.80;96.70
5128;DHT22;2582;48.770;9.190;2023-07-13T01:37:20;21.80;97.20
5128;DHT22;2582;48.770;9.190;2023-07-13T01:39:46;21.60;96.80
5128;DHT22;2582;48.770;9.190;2023-07-13T01:42:12;21.50;97.90
5128;DHT22;2582;48.770;9.190;2023-07-13T01:44:38;21.30;98.30
5128;DHT22;2582;48.770;9.190;2023-07-13T01:47:04;21.20;98.60
5128;DHT22;2582;48.770;9.190;2023-07-13T01:49:30;21.00;98.80
5128;DHT22;2582;48.770;9.190;2023-07-13T01:51:55;21.20;99.40
5128;DHT22;2582;48.770;9.190;2023-07-13T01:54:21;21.20;99.20
5128;DHT22;2582;48.770;9.190;2023-07-13T01:56:46;21.20;99.30
5128;DHT22;2582;48.770;9.190;2023-07-13T01:59:12;21.00;99.70
5128;DHT22;2582;48.770;9.190;2023-07-13T02:01:37;20.90;99.90
5128;DHT22;2582;48.770;9.190;2023-07-13T02:04:03;20.70;99.90
5128;DHT22;2582;48.770;9.190;2023-07-13T02:06:29;20.50;99.90
5128;DHT22;2582;48.770;9.190;2023-07-13T02:08:55;20.30;99.90
5128;DHT22;2582;48.770;9.190;2023-07-13T02:11:20;20.40;99.90
5128;DHT22;2582;48.770;9.190;2023-07-13T02:13:46;20.40;99.90
5128;DHT22;2582;48.770;9.190;2023-07-13T02:16:12;20.50;99.90
5128;DHT22;2582;48.770;9.190;2023-07-13T02:18:37;20.40;99.90
5128;DHT22;2582;48.770;9.190;2023-07-13T02:21:03;20.30;99.90
5128;DHT22;2582;48.770;9.190;2023-07-13T02:23:29;20.20;99.90
5128;DHT22;2582;48.770;9.190;2023-07-13T02:25:56;20.10;99.90
5128;DHT22;2582;48.770;9.190;2023-07-13T02:28:22;20.00;99.90
5128;DHT22;2582;48.770;9.190;2023-07-13T02:30:48;19.90;99.90
5128;DHT22;2582;48.770;9.190;2023-07-13T02:33:13;19.90;99.90
5128;DHT22;2582;48.770;9.190;2023-07-13T02:35:39;19.90;99.90
5128;DHT22;2582;48.770;9.190;2023-07-13T02:38:05;19.80;99.90
5128;DHT22;2582;48.770;9.190;2023-07-13T02:40:30;19.80;99.90
5128;DHT22;2582;48.770;9.190;2023-07-13T02:42:59;19.70;99.90
5128;DHT22;2582;48.770;9.190;2023-07-13T02:45:25;19.70;99.90
5128;DHT22;2582;48.770;9.190;2023-07-13T02:47:51;19.70;99.90
5128;DHT22;2582;48.770;9.190;2023-07-13T02:50:17;19.70;99.90
5128;DHT22;2582;48.770;9.190;2023-07-13T02:52:42;19.70;99.90
5128;DHT22;2582;48.770;9.190;2023-07-13T02:55:08;19.70;99.90
5128;DHT22;2582;48.770;9.190;2023-07-13T02:57:34;19.60;99.90
5128;DHT22;2582;48.770;9.190;2023-07-13T03:00:01;19.50;99.90
5128;DHT22;2582;48.770;9.190;2023-07-13T03:02:31;19.40;99.90
5128;DHT22;2582;48.770;9.190;2023-07-13T03:04:56;19.20;99.90
5128;DHT22;2582;48.770;9.190;2023-07-13T03:07:22;19.30;99.90
5128;DHT22;2582;48.770;9.190;2023-07-13T03:09:47;19.30;99.90
5128;DHT22;2582;48.770;9.190;2023-07-13T03:12:13;19.40;99.90
5128;DHT22;2582;48.770;9.190;2023-07-13T03:14:39;19.40;99.90
5128;DHT22;2582;48.770;9.190;2023-07-13T03:17:04;19.50;99.90
5128;DHT22;2582;48.770;9.190;2023-07-13T03:19:30;19.50;99.90
5128;DHT22;2582;48.770;9.190;2023-07-13T03:21:55;19.50;99.90
5128;DHT22;2582;48.770;9.190;2023-07-13T03:24:21;19.50;99.90
5128;DHT22;2582;48.770;9.190;2023-07-13T03:26:48;19.60;99.90
5128;DHT22;2582;48.770;9.190;2023-07-13T03:29:14;19.70;99.90
5128;DHT22;2582;48.770;9.190;2023-07-13T03:31:40;19.70;99.90
5128;DHT22;2582;48.770;9.190;2023-07-13T03:34:05;19.80;99.90
5128;DHT22;2582;48.770;9.190;2023-07-13T03:36:32;19.90;99.90
5128;DHT22;2582;48.770;9.190;2023-07-13T03:39:02;19.90;99.90
5128;DHT22;2582;48.770;9.190;2023-07-13T03:41:28;20.00;99.90
5128;DHT22;2582;48.770;9.190;2023-07-13T03:43:54;20.00;99.90
5128;DHT22;2582;48.770;9.190;2023-07-13T03:46:20;20.00;99.90
5128;DHT22;2582;48.770;9.190;2023-07-13T03:48:46;20.00;99.90
5128;DHT22;2582;48.770;9.190;2023-07-13T03:51:14;20.20;99.90
5128;DHT22;2582;48.770;9.190;2023-07-13T03:53:42;20.30;99.90
5128;DHT22;2582;48.770;9.190;2023-07-13T03:56:08;20.40;99.90
5128;DHT22;2582;48.770;9.190;2023-07-13T03:58:37;20.30;99.90
5128;DHT22;2582;48.770;9.190;2023-07-13T04:01:04;20.30;99.90
5128;DHT22;2582;48.770;9.190;2023-07-13T04:03:31;20.40;99.90
5128;DHT22;2582;48.770;9.190;2023-07-13T04:05:59;20.40;99.90
5128;DHT22;2582;48.770;9.190;2023-07-13T04:08:34;20.40;99.90
5128;DHT22;2582;48.770;9.190;2023-07-13T04:11:00;20.40;99.90
5128;DHT22;2582;48.770;9.190;2023-07-13T04:13:27;20.50;99.90
5128;DHT22;2582;48.770;9.190;2023-07-13T04:15:53;20.50;99.90
5128;DHT22;2582;48.770;9.190;2023-07-13T04:18:20;20.60;99.90
5128;DHT22;2582;48.770;9.190;2023-07-13T04:20:46;20.80;99.90
5128;DHT22;2582;48.770;9.190;2023-07-13T04:23:12;20.70;99.90
5128;DHT22;2582;48.770;9.190;2023-07-13T04:25:38;20.80;99.90
5128;DHT22;2582;48.770;9.190;2023-07-13T04:28:04;20.80;99.90
5128;DHT22;2582;48.770;9.190;2023-07-13T04:30:30;20.70;99.90
5128;DHT22;2582;48.770;9.190;2023-07-13T04:32:56;20.80;99.90
5128;DHT22;2582;48.770;9.190;2023-07-13T04:35:22;20.90;99.90
5128;DHT22;2582;48.770;9.190;2023-07-13T04:37:49;20.90;99.90
5128;DHT22;2582;48.770;9.190;2023-07-13T04:40:19;20.90;99.90
5128;DHT22;2582;48.770;9.190;2023-07-13T04:42:46;20.90;99.90
5128;DHT22;2582;48.770;9.190;2023-07-13T04:45:13;20.80;99.90
5128;DHT22;2582;48.770;9.190;2023-07-13T04:47:40;20.80;99.90
5128;DHT22;2582;48.770;9.190;2023-07-13T04:50:07;20.80;99.90
5128;DHT22;2582;48.770;9.190;2023-07-13T04:52:33;20.60;99.90
5128;DHT22;2582;48.770;9.190;2023-07-13T04:54:59;20.60;99.90
5128;DHT22;2582;48.770;9.190;2023-07-13T04:57:26;20.60;99.90
5128;DHT22;2582;48.770;9.190;2023-07-13T04:59:52;20.50;99.90
5128;DHT22;2582;48.770;9.190;2023-07-13T05:02:18;20.60;99.90
5128;DHT22;2582;48.770;9.190;2023-07-13T05:04:46;20.60;99.90
5128;DHT22;2582;48.770;9.190;2023-07-13T05:07:13;20.60;99.90
5128;DHT22;2582;48.770;9.190;2023-07-13T05:09:38;20.50;99.90
5128;DHT22;2582;48.770;9.190;2023-07-13T05:12:07;20.50;99.90
5128;DHT22;2582;48.770;9.190;2023-07-13T05:14:33;20.40;99.90
5128;DHT22;2582;48.770;9.190;2023-07-13T05:16:58;20.50;99.90
5128;DHT22;2582;48.770;9.190;2023-07-13T05:19:24;20.50;99.90
5128;DHT22;2582;48.770;9.190;2023-07-13T05:21:50;20.70;99.90
5128;DHT22;2582;48.770;9.190;2023-07-13T05:24:15;20.70;99.90
5128;DHT22;2582;48.770;9.190;2023-07-13T05:26:41;20.70;99.90
5128;DHT22;2582;48.770;9.190;2023-07-13T05:29:06;20.80;99.90
5128;DHT22;2582;48.770;9.190;2023-07-13T05:31:32;21.00;99.90
5128;DHT22;2582;48.770;9.190;2023-07-13T05:33:58;21.20;99.90
5128;DHT22;2582;48.770;9.190;2023-07-13T05:36:23;21.30;99.90
5128;DHT22;2582;48.770;9.190;2023-07-13T05:38:49;21.30;99.90
5128;DHT22;2582;48.770;9.190;2023-07-13T05:41:14;21.40;99.90
5128;DHT22;2582;48.770;9.190;2023-07-13T05:43:40;21.50;99.90
5128;DHT22;2582;48.770;9.190;2023-07-13T05:46:06;21.50;99.80
5128;DHT22;2582;48.770;9.190;2023-07-13T05:48:31;21.40;99.20
5128;DHT22;2582;48.770;9.190;2023-07-13T05:50:57;21.40;98.90
5128;DHT22;2582;48.770;9.190;2023-07-13T05:53:22;21.50;98.90
5128;DHT22;2582;48.770;9.190;2023-07-13T05:55:48;21.40;98.80
5128;DHT22;2582;48.770;9.190;2023-07-13T05:58:16;21.30;98.50
5128;DHT22;2582;48.770;9.190;2023-07-13T06:00:42;21.40;99.00
5128;DHT22;2582;48.770;9.190;2023-07-13T06:03:08;21.40;98.80
5128;DHT22;2582;48.770;9.190;2023-07-13T06:05:35;21.60;98.70
5128;DHT22;2582;48.770;9.190;2023-07-13T06:08:02;21.40;98.10
5128;DHT22;2582;48.770;9.190;2023-07-13T06:10:27;21.40;98.40
5128;DHT22;2582;48.770;9.190;2023-07-13T06:12:53;21.20;98.40
5128;DHT22;2582;48.770;9.190;2023-07-13T06:15:19;21.10;98.70
5128;DHT22;2582;48.770;9.190;2023-07-13T06:17:44;21.20;98.60
5128;DHT22;2582;48.770;9.190;2023-07-13T06:20:10;21.50;98.80
5128;DHT22;2582;48.770;9.190;2023-07-13T06:22:36;21.50;98.40
5128;DHT22;2582;48.770;9.190;2023-07-13T06:25:02;21.50;98.40
5128;DHT22;2582;48.770;9.190;2023-07-13T06:27:28;21.40;98.00
5128;DHT22;2582;48.770;9.190;2023-07-13T06:29:54;21.50;98.10
5128;DHT22;2582;48.770;9.190;2023-07-13T06:32:20;21.60;97.30
5128;DHT22;2582;48.770;9.190;2023-07-13T06:34:45;21.60;97.90
5128;DHT22;2582;48.770;9.190;2023-07-13T06:37:11;21.70;97.30
5128;DHT22;2582;48.770;9.190;2023-07-13T06:39:37;21.70;97.00
5128;DHT22;2582;48.770;9.190;2023-07-13T06:42:03;21.50;96.90
5128;DHT22;2582;48.770;9.190;2023-07-13T06:44:28;21.80;96.90
5128;DHT22;2582;48.770;9.190;2023-07-13T06:46:54;22.00;96.70
5128;DHT22;2582;48.770;9.190;2023-07-13T06:49:19;21.90;96.50
5128;DHT22;2582;48.770;9.190;2023-07-13T06:51:45;22.20;96.30
5128;DHT22;2582;48.770;9.190;2023-07-13T06:54:10;22.20;95.90
5128;DHT22;2582;48.770;9.190;2023-07-13T06:56:36;22.40;95.60
5128;DHT22;2582;48.770;9.190;2023-07-13T06:59:02;22.60;95.50
5128;DHT22;2582;48.770;9.190;2023-07-13T07:01:27;22.60;95.00
5128;DHT22;2582;48.770;9.190;2023-07-13T07:03:53;22.70;94.70
5128;DHT22;2582;48.770;9.190;2023-07-13T07:06:20;22.50;94.80
5128;DHT22;2582;48.770;9.190;2023-07-13T07:08:48;22.40;95.50
5128;DHT22;2582;48.770;9.190;2023-07-13T07:11:18;22.40;95.10
5128;DHT22;2582;48.770;9.190;2023-07-13T07:13:44;22.40;93.40
5128;DHT22;2582;48.770;9.190;2023-07-13T07:16:09;22.10;92.90
5128;DHT22;2582;48.770;9.190;2023-07-13T07:18:35;22.40;93.40
5128;DHT22;2582;48.770;9.190;2023-07-13T07:21:01;22.30;93.30
5128;DHT22;2582;48.770;9.190;2023-07-13T07:23:27;22.40;92.10
5128;DHT22;2582;48.770;9.190;2023-07-13T07:25:53;22.50;92.90
5128;DHT22;2582;48.770;9.190;2023-07-13T07:28:19;22.60;92.90
5128;DHT22;2582;48.770;9.190;2023-07-13T07:30:45;22.40;92.30
5128;DHT22;2582;48.770;9.190;2023-07-13T07:33:11;22.30;91.80
5128;DHT22;2582;48.770;9.190;2023-07-13T07:35:37;22.30;92.10
5128;DHT22;2582;48.770;9.190;2023-07-13T07:38:02;22.40;91.80
5128;DHT22;2582;48.770;9.190;2023-07-13T07:40:28;22.40;91.60
5128;DHT22;2582;48.770;9.190;2023-07-13T07:42:54;22.40;91.10
5128;DHT22;2582;48.770;9.190;2023-07-13T07:45:20;22.50;91.30
5128;DHT22;2582;48.770;9.190;2023-07-13T07:47:45;22.60;92.30
5128;DHT22;2582;48.770;9.190;2023-07-13T07:50:11;22.60;91.90
5128;DHT22;2582;48.770;9.190;2023-07-13T07:52:37;22.70;91.70
5128;DHT22;2582;48.770;9.190;2023-07-13T07:55:04;22.80;90.30
5128;DHT22;2582;48.770;9.190;2023-07-13T07:57:30;22.60;90.70
5128;DHT22;2582;48.770;9.190;2023-07-13T07:59:56;22.50;90.30
5128;DHT22;2582;48.770;9.190;2023-07-13T08:02:21;22.40;91.30
5128;DHT22;2582;48.770;9.190;2023-07-13T08:04:47;22.60;91.60
5128;DHT22;2582;48.770;9.190;2023-07-13T08:07:13;22.60;90.40
5128;DHT22;2582;48.770;9.190;2023-07-13T08:09:38;22.60;90.00
5128;DHT22;2582;48.770;9.190;2023-07-13T08:12:04;22.80;90.90
5128;DHT22;2582;48.770;9.190;2023-07-13T08:14:30;23.00;90.20
5128;DHT22;2582;48.770;9.190;2023-07-13T08:16:56;22.90;89.70
5128;DHT22;2582;48.770;9.190;2023-07-13T08:19:21;23.00;89.30
5128;DHT22;2582;48.770;9.190;2023-07-13T08:21:47;23.00;88.10
5128;DHT22;2582;48.770;9.190;2023-07-13T08:24:14;23.20;87.00
5128;DHT22;2582;48.770;9.190;2023-07-13T08:26:40;23.20;86.70
5128;DHT22;2582;48.770;9.190;2023-07-13T08:29:05;23.30;86.40
5128;DHT22;2582;48.770;9.190;2023-07-13T08:31:31;23.00;87.10
5128;DHT22;2582;48.770;9.190;2023-07-13T08:33:57;22.90;87.50
5128;DHT22;2582;48.770;9.190;2023-07-13T08:36:22;22.70;88.10
5128;DHT22;2582;48.770;9.190;2023-07-13T08:38:48;22.80;87.90
5128;DHT22;2582;48.770;9.190;2023-07-13T08:41:18;22.90;88.70
5128;DHT22;2582;48.770;9.190;2023-07-13T08:43:47;23.30;88.30
5128;DHT22;2582;48.770;9.190;2023-07-13T08:46:33;23.60;88.70
5128;DHT22;2582;48.770;9.190;2023-07-13T08:49:16;23.80;88.30
5128;DHT22;2582;48.770;9.190;2023-07-13T08:51:58;23.80;86.90
5128;DHT22;2582;48.770;9.190;2023-07-13T08:54:44;23.90;86.00
5128;DHT22;2582;48.770;9.190;2023-07-13T08:57:17;23.80;86.50
5128;DHT22;2582;48.770;9.190;2023-07-13T08:59:44;23.70;88.80
5128;DHT22;2582;48.770;9.190;2023-07-13T09:02:36;24.00;87.70
5128;DHT22;2582;48.770;9.190;2023-07-13T09:05:12;23.90;87.90
5128;DHT22;2582;48.770;9.190;2023-07-13T09:07:50;23.90;88.30
5128;DHT22;2582;48.770;9.190;2023-07-13T09:10:29;23.80;88.00
5128;DHT22;2582;48.770;9.190;2023-07-13T09:13:29;23.70;87.70
5128;DHT22;2582;48.770;9.190;2023-07-13T09:15:59;23.70;87.00
5128;DHT22;2582;48.770;9.190;2023-07-13T09:18:28;23.60;88.00
5128;DHT22;2582;48.770;9.190;2023-07-13T09:23:39;23.80;87.30
5128;DHT22;2582;48.770;9.190;2023-07-13T09:26:12;23.70;87.00
5128;DHT22;2582;48.770;9.190;2023-07-13T09:28:43;23.70;86.00
5128;DHT22;2582;48.770;9.190;2023-07-13T09:31:19;23.60;86.30
5128;DHT22;2582;48.770;9.190;2023-07-13T09:33:47;24.00;87.00
5128;DHT22;2582;48.770;9.190;2023-07-13T09:36:29;24.50;85.30
5128;DHT22;2582;48.770;9.190;2023-07-13T09:42:03;25.20;83.40
5128;DHT22;2582;48.770;9.190;2023-07-13T09:44:53;24.90;82.70
5128;DHT22;2582;48.770;9.190;2023-07-13T09:49:54;24.30;83.70
5128;DHT22;2582;48.770;9.190;2023-07-13T09:52:21;24.50;84.20
5128;DHT22;2582;48.770;9.190;2023-07-13T09:54:51;24.50;82.40
5128;DHT22;2582;48.770;9.190;2023-07-13T09:57:23;24.70;82.80
5128;DHT22;2582;48.770;9.190;2023-07-13T09:59:51;25.10;83.00
5128;DHT22;2582;48.770;9.190;2023-07-13T10:02:37;25.20;79.90
5128;DHT22;2582;48.770;9.190;2023-07-13T10:05:10;24.70;80.20
5128;DHT22;2582;48.770;9.190;2023-07-13T10:07:41;25.00;80.30
5128;DHT22;2582;48.770;9.190;2023-07-13T10:10:21;25.30;80.10
5128;DHT22;2582;48.770;9.190;2023-07-13T10:12:48;25.70;80.60
5128;DHT22;2582;48.770;9.190;2023-07-13T10:15:23;26.00;77.90
5128;DHT22;2582;48.770;9.190;2023-07-13T10:17:51;25.90;78.10
5128;DHT22;2582;48.770;9.190;2023-07-13T10:20:18;26.20;77.40
5128;DHT22;2582;48.770;9.190;2023-07-13T10:25:25;26.20;76.20
5128;DHT22;2582;48.770;9.190;2023-07-13T10:28:01;26.20;77.10
5128;DHT22;2582;48.770;9.190;2023-07-13T10:30:34;26.60;77.80
5128;DHT22;2582;48.770;9.190;2023-07-13T10:33:02;26.80;74.40
5128;DHT22;2582;48.770;9.190;2023-07-13T10:35:29;26.80;73.10
5128;DHT22;2582;48.770;9.190;2023-07-13T10:38:01;26.70;73.60
5128;DHT22;2582;48.770;9.190;2023-07-13T10:40:40;26.50;73.10
5128;DHT22;2582;48.770;9.190;2023-07-13T10:43:37;26.90;75.50
5128;DHT22;2582;48.770;9.190;2023-07-13T10:46:08;27.40;75.70
5128;DHT22;2582;48.770;9.190;2023-07-13T10:48:36;27.50;73.10
5128;DHT22;2582;48.770;9.190;2023-07-13T10:51:04;27.60;71.00
5128;DHT22;2582;48.770;9.190;2023-07-13T10:53:34;27.80;71.00
5128;DHT22;2582;48.770;9.190;2023-07-13T10:56:01;27.40;71.00
5128;DHT22;2582;48.770;9.190;2023-07-13T10:58:36;27.40;69.90
5128;DHT22;2582;48.770;9.190;2023-07-13T11:01:13;26.70;69.90
5128;DHT22;2582;48.770;9.190;2023-07-13T11:09:07;27.40;69.90
5128;DHT22;2582;48.770;9.190;2023-07-13T11:11:43;27.30;68.40
5128;DHT22;2582;48.770;9.190;2023-07-13T11:14:37;27.20;70.70
5128;DHT22;2582;48.770;9.190;2023-07-13T11:17:29;27.30;68.60
5128;DHT22;2582;48.770;9.190;2023-07-13T11:20:22;27.40;68.10
5128;DHT22;2582;48.770;9.190;2023-07-13T11:22:52;27.80;68.20
5128;DHT22;2582;48.770;9.190;2023-07-13T11:28:05;28.20;66.40
5128;DHT22;2582;48.770;9.190;2023-07-13T11:33:13;27.30;68.50
5128;DHT22;2582;48.770;9.190;2023-07-13T11:38:40;28.10;67.20
5128;DHT22;2582;48.770;9.190;2023-07-13T11:43:41;30.80;60.70
5128;DHT22;2582;48.770;9.190;2023-07-13T11:46:21;31.50;57.70
5128;DHT22;2582;48.770;9.190;2023-07-13T11:48:49;30.20;59.90
5128;DHT22;2582;48.770;9.190;2023-07-13T11:51:21;30.70;59.90
5128;DHT22;2582;48.770;9.190;2023-07-13T11:53:49;30.40;58.00
5128;DHT22;2582;48.770;9.190;2023-07-13T11:56:15;28.50;61.50
5128;DHT22;2582;48.770;9.190;2023-07-13T11:58:41;27.90;63.90
5128;DHT22;2582;48.770;9.190;2023-07-13T12:01:20;27.70;63.50
5128;DHT22;2582;48.770;9.190;2023-07-13T12:03:47;29.10;63.00
5128;DHT22;2582;48.770;9.190;2023-07-13T12:06:29;30.70;59.20
5128;DHT22;2582;48.770;9.190;2023-07-13T12:09:03;32.40;55.40
5128;DHT22;2582;48.770;9.190;2023-07-13T12:11:40;31.70;55.20
5128;DHT22;2582;48.770;9.190;2023-07-13T12:14:12;31.80;55.10
5128;DHT22;2582;48.770;9.190;2023-07-13T12:16:37;32.30;53.80
5128;DHT22;2582;48.770;9.190;2023-07-13T12:19:03;30.70;55.40
5128;DHT22;2582;48.770;9.190;2023-07-13T12:21:36;29.70;57.40
5128;DHT22;2582;48.770;9.190;2023-07-13T12:24:03;30.30;56.80
5128;DHT22;2582;48.770;9.190;2023-07-13T12:26:30;30.00;57.90
5128;DHT22;2582;48.770;9.190;2023-07-13T12:28:58;30.80;55.70
5128;DHT22;2582;48.770;9.190;2023-07-13T12:31:36;31.60;54.80
5128;DHT22;2582;48.770;9.190;2023-07-13T12:34:15;31.10;53.10
5128;DHT22;2582;48.770;9.190;2023-07-13T12:37:02;30.30;55.00
5128;DHT22;2582;48.770;9.190;2023-07-13T12:39:36;30.50;55.00
5128;DHT22;2582;48.770;9.190;2023-07-13T12:42:31;29.40;55.80
5128;DHT22;2582;48.770;9.190;2023-07-13T12:45:03;28.40;57.30
5128;DHT22;2582;48.770;9.190;2023-07-13T12:47:40;27.90;58.50
5128;DHT22;2582;48.770;9.190;2023-07-13T12:50:18;28.30;58.60
5128;DHT22;2582;48.770;9.190;2023-07-13T12:52:49;29.40;57.10
5128;DHT22;2582;48.770;9.190;2023-07-13T12:55:21;30.80;54.30
5128;DHT22;2582;48.770;9.190;2023-07-13T12:57:52;31.80;52.10
5128;DHT22;2582;48.770;9.190;2023-07-13T13:00:32;32.50;51.10
5128;DHT22;2582;48.770;9.190;2023-07-13T13:03:04;32.40;51.10
5128;DHT22;2582;48.770;9.190;2023-07-13T13:05:32;31.90;50.80
5128;DHT22;2582;48.770;9.190;2023-07-13T13:07:59;33.60;48.60
5128;DHT22;2582;48.770;9.190;2023-07-13T13:10:25;33.40;48.50
5128;DHT22;2582;48.770;9.190;2023-07-13T13:12:52;33.40;48.90
5128;DHT22;2582;48.770;9.190;2023-07-13T13:15:18;33.50;48.30
5128;DHT22;2582;48.770;9.190;2023-07-13T13:17:43;33.20;47.70
5128;DHT22;2582;48.770;9.190;2023-07-13T13:20:17;32.90;48.40
5128;DHT22;2582;48.770;9.190;2023-07-13T13:22:43;33.00;48.20
5128;DHT22;2582;48.770;9.190;2023-07-13T13:25:13;33.00;47.30
5128;DHT22;2582;48.770;9.190;2023-07-13T13:27:41;32.50;48.00
5128;DHT22;2582;48.770;9.190;2023-07-13T13:30:16;32.60;48.10
5128;DHT22;2582;48.770;9.190;2023-07-13T13:32:47;32.90;47.50
5128;DHT22;2582;48.770;9.190;2023-07-13T13:35:18;33.60;46.90
5128;DHT22;2582;48.770;9.190;2023-07-13T13:37:44;34.00;45.30
5128;DHT22;2582;48.770;9.190;2023-07-13T13:40:18;33.70;45.60
5128;DHT22;2582;48.770;9.190;2023-07-13T13:42:44;34.00;45.20
5128;DHT22;2582;48.770;9.190;2023-07-13T13:45:10;35.10;44.60
5128;DHT22;2582;48.770;9.190;2023-07-13T13:47:39;34.60;45.50
5128;DHT22;2582;48.770;9.190;2023-07-13T13:50:18;34.50;44.70
5128;DHT22;2582;48.770;9.190;2023-07-13T13:52:45;34.60;43.90
5128;DHT22;2582;48.770;9.190;2023-07-13T13:55:18;34.10;43.80
5128;DHT22;2582;48.770;9.190;2023-07-13T13:57:48;33.00;44.70
5128;DHT22;2582;48.770;9.190;2023-07-13T14:00:15;32.30;46.90
5128;DHT22;2582;48.770;9.190;2023-07-13T14:02:44;30.80;47.80
5128;DHT22;2582;48.770;9.190;2023-07-13T14:05:14;30.10;48.50
5128;DHT22;2582;48.770;9.190;2023-07-13T14:07:41;31.10;49.00
5128;DHT22;2582;48.770;9.190;2023-07-13T14:10:14;31.80;47.10
5128;DHT22;2582;48.770;9.190;2023-07-13T14:12:44;31.60;46.90
5128;DHT22;2582;48.770;9.190;2023-07-13T14:15:27;31.20;48.50
5128;DHT22;2582;48.770;9.190;2023-07-13T14:17:54;31.40;47.40
5128;DHT22;2582;48.770;9.190;2023-07-13T14:20:21;30.70;49.30
5128;DHT22;2582;48.770;9.190;2023-07-13T14:22:50;31.00;49.40
5128;DHT22;2582;48.770;9.190;2023-07-13T14:25:17;30.60;49.10
5128;DHT22;2582;48.770;9.190;2023-07-13T14:27:44;30.70;49.70
5128;DHT22;2582;48.770;9.190;2023-07-13T14:30:15;30.60;49.30
5128;DHT22;2582;48.770;9.190;2023-07-13T14:32:41;30.30;50.00
5128;DHT22;2582;48.770;9.190;2023-07-13T14:35:14;30.80;49.10
5128;DHT22;2582;48.770;9.190;2023-07-13T14:37:40;31.20;48.20
5128;DHT22;2582;48.770;9.190;2023-07-13T14:40:16;31.60;48.00
5128;DHT22;2582;48.770;9.190;2023-07-13T14:42:43;32.50;46.60
5128;DHT22;2582;48.770;9.190;2023-07-13T14:45:16;32.40;46.20
5128;DHT22;2582;48.770;9.190;2023-07-13T14:47:42;32.90;46.20
5128;DHT22;2582;48.770;9.190;2023-07-13T14:50:20;34.10;44.10
5128;DHT22;2582;48.770;9.190;2023-07-13T14:52:46;34.20;44.10
5128;DHT22;2582;48.770;9.190;2023-07-13T14:55:19;33.60;44.20
5128;DHT22;2582;48.770;9.190;2023-07-13T14:57:45;33.50;45.50
5128;DHT22;2582;48.770;9.190;2023-07-13T15:00:16;33.70;45.30
5128;DHT22;2582;48.770;9.190;2023-07-13T15:02:45;33.90;43.70
5128;DHT22;2582;48.770;9.190;2023-07-13T15:05:23;34.20;43.60
5128;DHT22;2582;48.770;9.190;2023-07-13T15:07:51;34.10;43.80
5128;DHT22;2582;48.770;9.190;2023-07-13T15:10:21;33.70;44.90
5128;DHT22;2582;48.770;9.190;2023-07-13T15:12:48;34.40;44.30
5128;DHT22;2582;48.770;9.190;2023-07-13T15:15:14;34.20;43.90
5128;DHT22;2582;48.770;9.190;2023-07-13T15:17:41;34.30;43.70
5128;DHT22;2582;48.770;9.190;2023-07-13T15:22:44;32.90;45.50
5128;DHT22;2582;48.770;9.190;2023-07-13T15:25:22;32.50;46.30
5128;DHT22;2582;48.770;9.190;2023-07-13T15:27:50;32.80;46.00
5128;DHT22;2582;48.770;9.190;2023-07-13T15:30:15;33.30;45.50
5128;DHT22;2582;48.770;9.190;2023-07-13T15:32:42;33.60;43.90
5128;DHT22;2582;48.770;9.190;2023-07-13T15:35:26;33.30;44.50
5128;DHT22;2582;48.770;9.190;2023-07-13T15:37:52;33.50;44.60
5128;DHT22;2582;48.770;9.190;2023-07-13T15:40:18;33.30;44.50
5128;DHT22;2582;48.770;9.190;2023-07-13T15:42:47;32.60;45.20
5128;DHT22;2582;48.770;9.190;2023-07-13T15:45:23;31.90;46.80
5128;DHT22;2582;48.770;9.190;2023-07-13T15:47:50;31.40;47.40
5128;DHT22;2582;48.770;9.190;2023-07-13T15:50:19;31.90;46.10
5128;DHT22;2582;48.770;9.190;2023-07-13T15:52:51;31.70;46.70
5128;DHT22;2582;48.770;9.190;2023-07-13T15:55:18;32.00;45.80
5128;DHT22;2582;48.770;9.190;2023-07-13T15:57:50;32.60;45.80
5128;DHT22;2582;48.770;9.190;2023-07-13T16:00:25;32.90;45.80
5128;DHT22;2582;48.770;9.190;2023-07-13T16:02:52;32.20;44.70
5128;DHT22;2582;48.770;9.190;2023-07-13T16:05:19;32.30;45.70
5128;DHT22;2582;48.770;9.190;2023-07-13T16:07:46;32.80;45.00
5128;DHT22;2582;48.770;9.190;2023-07-13T16:10:36;32.40;45.00
5128;DHT22;2582;48.770;9.190;2023-07-13T16:13:09;32.40;45.70
5128;DHT22;2582;48.770;9.190;2023-07-13T16:15:36;33.30;45.20
5128;DHT22;2582;48.770;9.190;2023-07-13T16:18:01;33.40;44.60
5128;DHT22;2582;48.770;9.190;2023-07-13T16:20:28;33.30;44.60
5128;DHT22;2582;48.770;9.190;2023-07-13T16:22:55;33.00;44.10
5128;DHT22;2582;48.770;9.190;2023-07-13T16:25:23;33.40;44.10
5128;DHT22;2582;48.770;9.190;2023-07-13T16:27:50;32.70;44.40
5128;DHT22;2582;48.770;9.190;2023-07-13T16:30:20;32.10;45.00
5128;DHT22;2582;48.770;9.190;2023-07-13T16:32:52;31.60;45.50
5128;DHT22;2582;48.770;9.190;2023-07-13T16:35:23;32.20;45.40
5128;DHT22;2582;48.770;9.190;2023-07-13T16:37:49;32.20;44.70
5128;DHT22;2582;48.770;9.190;2023-07-13T16:40:25;31.40;46.10
5128;DHT22;2582;48.770;9.190;2023-07-13T16:42:54;31.50;46.40
5128;DHT22;2582;48.770;9.190;2023-07-13T16:45:21;31.70;46.30